Time;durP1;ratioP1;P1;durP2;ratioP2;P2;SDS_P1;SDS_P2;PMS_P1;PMS_P2;Temp;Humidity;BMP_temperature;BMP_pressure;BME280_temperature;BME280_humidity;BME280_pressure;Samples;Min_cycle;Max_cycle;Signal;HPM_P1;HPM_P2
2022/07/02 00:01:58;;;;;;;2.97;2.87;;;17.10;99.90;;;;;;10458675;28;20205;-80
2022/07/02 00:07:00;;;;;;;2.77;2.67;;;17.10;99.90;;;;;;10459001;28;20220;-79
2022/07/02 00:12:04;;;;;;;3.33;3.13;;;17.00;99.90;;;;;;10461337;28;20750;-79
2022/07/02 00:17:07;;;;;;;3.20;3.10;;;17.00;99.90;;;;;;10465401;28;20217;-79
2022/07/02 00:22:10;;;;;;;3.60;3.30;;;17.00;99.90;;;;;;10462434;28;20197;-79
2022/07/02 00:27:15;;;;;;;3.70;3.40;;;17.00;99.90;;;;;;10460821;28;20672;-79
2022/07/02 00:32:17;;;;;;;3.83;3.63;;;16.90;99.90;;;;;;10442242;28;20205;-79
2022/07/02 00:37:21;;;;;;;3.77;3.47;;;16.90;99.90;;;;;;10460805;28;20789;-79
2022/07/02 00:42:25;;;;;;;4.00;3.80;;;16.90;99.90;;;;;;10444128;28;20255;-79
2022/07/02 00:47:30;;;;;;;4.83;3.50;;;16.90;99.90;;;;;;10449152;28;20236;-79
2022/07/02 00:52:33;;;;;;;4.90;3.70;;;16.90;99.90;;;;;;10443487;28;20232;-79
2022/07/02 00:57:36;;;;;;;4.13;3.50;;;16.80;99.90;;;;;;10460025;28;20227;-79
2022/07/02 01:02:40;;;;;;;4.00;3.30;;;16.80;99.90;;;;;;10455939;28;20205;-79
2022/07/02 01:07:45;;;;;;;3.20;3.10;;;16.80;99.90;;;;;;10460035;28;20296;-79
2022/07/02 01:12:50;;;;;;;2.90;2.80;;;16.80;99.90;;;;;;10460321;28;20255;-79
2022/07/02 01:17:52;;;;;;;3.40;3.20;;;16.80;99.90;;;;;;10463080;28;20213;-79
2022/07/02 01:22:55;;;;;;;3.30;3.10;;;16.80;99.90;;;;;;10462980;28;20216;-79
2022/07/02 01:27:57;;;;;;;3.13;2.93;;;16.80;99.90;;;;;;10461210;28;20264;-81
2022/07/02 01:33:00;;;;;;;3.10;3.00;;;16.80;99.90;;;;;;10458005;28;20201;-81
2022/07/02 01:38:03;;;;;;;3.80;3.60;;;16.80;99.90;;;;;;10443840;28;20233;-79
2022/07/02 01:43:05;;;;;;;3.20;3.00;;;16.80;99.90;;;;;;10460531;28;20197;-79
2022/07/02 01:48:07;;;;;;;3.33;3.13;;;16.80;99.90;;;;;;10473070;28;20592;-79
2022/07/02 01:53:11;;;;;;;3.70;3.50;;;16.70;99.90;;;;;;10458009;28;20205;-81
2022/07/02 01:58:13;;;;;;;3.93;3.73;;;16.70;99.90;;;;;;10460198;28;20221;-80
2022/07/02 02:03:15;;;;;;;3.53;3.43;;;16.70;99.90;;;;;;10460095;28;20288;-81
2022/07/02 02:08:18;;;;;;;3.90;3.70;;;16.70;99.90;;;;;;10440605;28;20673;-79
2022/07/02 02:13:20;;;;;;;3.93;3.73;;;16.70;99.90;;;;;;10460874;28;20228;-79
2022/07/02 02:18:22;;;;;;;3.60;3.30;;;16.70;99.90;;;;;;10455085;28;20272;-79
2022/07/02 02:23:26;;;;;;;3.33;3.13;;;16.60;99.90;;;;;;10466073;28;20193;-79
2022/07/02 02:28:28;;;;;;;3.40;3.30;;;16.60;99.90;;;;;;10462329;28;20291;-79
2022/07/02 02:33:30;;;;;;;3.43;3.33;;;16.60;99.90;;;;;;10455197;28;20205;-79
2022/07/02 02:38:36;;;;;;;4.00;3.80;;;16.60;99.90;;;;;;10457229;28;20219;-79
2022/07/02 02:43:38;;;;;;;3.50;3.20;;;16.60;99.90;;;;;;10456040;28;20629;-79
2022/07/02 02:48:40;;;;;;;3.27;3.17;;;16.50;99.90;;;;;;10439034;28;20232;-79
2022/07/02 02:53:45;;;;;;;4.47;3.87;;;16.50;99.90;;;;;;10464493;28;20216;-79
2022/07/02 02:58:47;;;;;;;3.97;3.67;;;16.50;99.90;;;;;;10463947;28;20240;-79
2022/07/02 03:03:49;;;;;;;3.87;3.57;;;16.50;99.90;;;;;;10463069;28;20209;-79
2022/07/02 03:08:52;;;;;;;4.20;4.10;;;16.50;99.90;;;;;;10458325;28;20209;-78
2022/07/02 03:13:54;;;;;;;3.80;3.60;;;16.50;99.90;;;;;;10466963;28;20209;-78
2022/07/02 03:18:56;;;;;;;10.40;3.77;;;16.50;99.90;;;;;;10453027;28;20221;-81
2022/07/02 03:24:00;;;;;;;4.00;3.80;;;16.50;99.90;;;;;;10463554;28;20665;-80
2022/07/02 03:29:02;;;;;;;3.67;3.47;;;16.50;99.90;;;;;;10443374;28;20256;-81
2022/07/02 03:34:04;;;;;;;4.50;4.10;;;16.40;99.90;;;;;;10443712;28;20233;-81
2022/07/02 03:39:07;;;;;;;4.27;3.90;;;16.40;99.90;;;;;;10461317;28;20252;-81
2022/07/02 03:44:09;;;;;;;4.30;4.10;;;16.40;99.90;;;;;;10461232;28;20552;-81
2022/07/02 03:49:11;;;;;;;4.43;4.13;;;16.30;99.90;;;;;;10443933;28;20731;-81
2022/07/02 03:54:15;;;;;;;3.90;3.70;;;16.30;99.90;;;;;;10461501;28;20204;-81
2022/07/02 03:59:17;;;;;;;4.47;4.17;;;16.30;99.90;;;;;;10461493;28;20756;-80
2022/07/02 04:04:19;;;;;;;4.33;4.00;;;16.20;99.90;;;;;;10463151;28;20212;-79
2022/07/02 04:09:22;;;;;;;4.80;4.50;;;16.30;99.90;;;;;;10460798;28;20217;-79
2022/07/02 04:14:24;;;;;;;4.20;3.90;;;16.30;99.90;;;;;;10463203;28;20236;-79
2022/07/02 04:19:26;;;;;;;4.97;4.77;;;16.30;99.90;;;;;;10471678;28;20631;-79
2022/07/02 04:24:30;;;;;;;4.43;4.00;;;16.30;99.90;;;;;;10462593;28;20208;-79
2022/07/02 04:29:32;;;;;;;4.90;4.70;;;16.30;99.90;;;;;;10459982;28;20315;-79
2022/07/02 04:34:34;;;;;;;4.40;4.20;;;16.40;99.90;;;;;;10461405;28;20640;-79
2022/07/02 04:39:38;;;;;;;4.77;4.47;;;16.40;99.90;;;;;;10460471;28;20223;-81
2022/07/02 04:44:40;;;;;;;4.50;4.30;;;16.40;99.90;;;;;;10468222;28;20212;-79
2022/07/02 04:49:42;;;;;;;5.30;5.00;;;16.40;99.90;;;;;;10459334;28;20229;-81
2022/07/02 04:54:46;;;;;;;5.57;5.17;;;16.50;99.90;;;;;;10460142;28;20283;-79
2022/07/02 04:59:48;;;;;;;4.87;4.57;;;16.50;99.90;;;;;;10425959;28;20321;-79
2022/07/02 05:04:50;;;;;;;5.70;5.30;;;16.60;99.90;;;;;;10434311;28;20274;-79
2022/07/02 05:09:53;;;;;;;5.00;4.70;;;16.60;99.90;;;;;;10421244;28;20232;-79
2022/07/02 05:14:55;;;;;;;5.10;4.80;;;16.60;99.90;;;;;;10455624;28;20208;-79
2022/07/02 05:19:57;;;;;;;5.30;5.00;;;16.70;99.90;;;;;;10455896;28;20233;-78
2022/07/02 05:25:01;;;;;;;4.87;4.57;;;16.70;99.90;;;;;;10458198;28;20201;-77
2022/07/02 05:30:04;;;;;;;5.40;5.10;;;16.80;99.90;;;;;;10454877;28;20690;-79
2022/07/02 05:35:06;;;;;;;5.00;4.80;;;16.80;99.90;;;;;;10434746;28;20201;-77
2022/07/02 05:40:11;;;;;;;5.00;4.70;;;16.90;99.90;;;;;;10435047;28;20237;-77
2022/07/02 05:45:13;;;;;;;5.00;4.70;;;17.00;99.90;;;;;;10422651;28;20203;-78
2022/07/02 05:50:16;;;;;;;4.40;4.10;;;17.00;99.90;;;;;;10419430;28;20225;-78
2022/07/02 05:55:19;;;;;;;5.00;4.80;;;17.10;99.90;;;;;;10433944;28;20201;-78
2022/07/02 06:00:21;;;;;;;4.23;4.03;;;17.20;99.90;;;;;;10452515;28;20243;-78
2022/07/02 06:10:45;;;;;;;4.47;3.80;;;17.30;99.90;;;;;;10470011;28;20335;-77
2022/07/02 06:15:47;;;;;;;3.93;3.73;;;17.40;99.90;;;;;;10460416;28;20221;-80
2022/07/02 06:20:49;;;;;;;3.93;3.73;;;17.50;99.90;;;;;;10454492;28;20701;-80
2022/07/02 06:25:52;;;;;;;3.70;3.50;;;17.60;99.90;;;;;;10454348;28;20742;-80
2022/07/02 06:30:55;;;;;;;3.30;3.10;;;17.70;99.90;;;;;;10455268;28;20246;-81
2022/07/02 06:35:57;;;;;;;4.60;4.30;;;17.80;99.90;;;;;;10456248;28;20197;-80
2022/07/02 06:41:00;;;;;;;2.57;2.47;;;17.90;99.90;;;;;;10543671;22;20265;-80
2022/07/02 06:46:02;;;;;;;2.50;2.40;;;18.10;99.90;;;;;;10529306;28;20645;-81
2022/07/02 06:51:05;;;;;;;2.60;2.47;;;18.40;99.90;;;;;;10541352;28;20223;-82
2022/07/02 06:56:08;;;;;;;3.27;3.07;;;18.80;99.90;;;;;;10531914;28;20200;-81
2022/07/02 07:01:10;;;;;;;2.33;2.23;;;19.10;99.90;;;;;;10535605;28;20222;-82
2022/07/02 07:06:12;;;;;;;3.73;2.20;;;19.50;99.90;;;;;;10542638;28;20196;-81
2022/07/02 07:11:16;;;;;;;2.13;2.03;;;19.90;99.90;;;;;;10524129;28;20301;-83
2022/07/02 07:16:18;;;;;;;1.60;1.50;;;20.10;99.90;;;;;;10511995;28;20231;-83
2022/07/02 07:21:20;;;;;;;2.80;1.67;;;20.50;99.90;;;;;;10530986;28;20744;-83
2022/07/02 07:26:24;;;;;;;2.20;2.10;;;20.90;99.90;;;;;;10534186;28;20282;-83
2022/07/02 07:31:26;;;;;;;2.33;1.60;;;21.30;99.90;;;;;;10533723;28;20235;-83
2022/07/02 07:36:28;;;;;;;1.63;1.63;;;21.80;99.90;;;;;;10536649;28;20692;-83
2022/07/02 07:41:32;;;;;;;1.70;1.60;;;22.40;99.90;;;;;;10540275;28;20676;-83
2022/07/02 07:46:35;;;;;;;2.13;2.03;;;22.90;99.90;;;;;;10540023;28;20192;-84
2022/07/02 07:51:37;;;;;;;2.10;2.00;;;23.30;99.90;;;;;;10523838;28;20228;-84
2022/07/02 07:56:41;;;;;;;1.53;1.43;;;23.70;99.90;;;;;;10523299;28;20199;-84
2022/07/02 08:01:43;;;;;;;2.43;1.47;;;24.10;98.10;;;;;;10522248;28;20239;-84
2022/07/02 08:06:46;;;;;;;1.20;1.20;;;24.50;96.50;;;;;;10522667;28;20202;-84
2022/07/02 08:11:49;;;;;;;1.73;1.63;;;24.90;95.40;;;;;;10525468;28;20227;-82
2022/07/02 08:16:51;;;;;;;1.57;1.47;;;25.30;95.50;;;;;;10549147;28;20199;-82
2022/07/02 08:21:54;;;;;;;1.60;1.50;;;26.00;94.10;;;;;;10532553;28;20220;-82
2022/07/02 08:26:58;;;;;;;1.70;1.60;;;26.40;91.50;;;;;;10549108;28;20629;-81
2022/07/02 08:32:00;;;;;;;1.90;1.70;;;26.80;90.90;;;;;;10553821;28;20216;-81
2022/07/02 08:37:07;;;;;;;1.87;1.77;;;27.20;88.20;;;;;;10549785;28;20221;-84
2022/07/02 08:42:11;;;;;;;1.80;1.70;;;27.50;87.30;;;;;;10547142;28;20200;-81
2022/07/02 08:47:15;;;;;;;1.20;1.10;;;27.80;80.80;;;;;;10558517;28;20283;-82
2022/07/02 08:52:19;;;;;;;1.50;1.40;;;27.90;83.30;;;;;;10558864;28;20298;-82
2022/07/02 08:57:51;;;;;;;1.73;1.63;;;28.20;80.30;;;;;;10558139;28;20666;-82
2022/07/02 09:02:56;;;;;;;1.40;1.40;;;28.40;76.90;;;;;;10554019;28;20222;-82
2022/07/02 09:07:59;;;;;;;1.30;1.30;;;28.50;74.10;;;;;;10558221;28;20228;-82
2022/07/02 09:13:03;;;;;;;1.53;1.53;;;28.60;74.20;;;;;;10559048;28;20206;-82
2022/07/02 09:18:05;;;;;;;0.90;0.90;;;28.80;70.10;;;;;;10557859;28;20242;-82
2022/07/02 09:23:10;;;;;;;1.80;1.70;;;29.10;70.80;;;;;;10552563;28;20287;-80
2022/07/02 09:28:15;;;;;;;1.50;1.40;;;29.20;71.90;;;;;;10546210;28;20228;-81
2022/07/02 09:33:32;;;;;;;1.50;1.40;;;29.60;69.50;;;;;;10550829;28;20196;-81
2022/07/02 09:38:42;;;;;;;1.40;1.30;;;30.00;68.60;;;;;;10544190;28;20219;-80
2022/07/02 09:43:45;;;;;;;1.73;1.60;;;30.70;67.80;;;;;;10534908;28;20225;-80
2022/07/02 09:48:48;;;;;;;1.47;1.37;;;31.60;59.60;;;;;;10554139;28;20219;-80
2022/07/02 09:53:51;;;;;;;1.60;1.50;;;32.40;59.10;;;;;;10546065;28;20631;-81
2022/07/02 09:58:55;;;;;;;1.57;1.37;;;33.40;58.70;;;;;;10526157;28;20221;-80
2022/07/02 10:03:57;;;;;;;1.67;1.57;;;34.40;57.20;;;;;;10542532;28;20217;-82
2022/07/02 10:08:59;;;;;;;1.30;1.30;;;35.10;55.00;;;;;;10524740;28;20222;-82
2022/07/02 10:14:05;;;;;;;7.20;1.70;;;36.20;50.80;;;;;;10542364;28;20628;-81
2022/07/02 10:19:08;;;;;;;1.33;1.33;;;37.00;49.50;;;;;;10530805;28;20262;-81
2022/07/02 10:24:12;;;;;;;2.57;1.17;;;37.40;50.60;;;;;;10559172;28;20199;-81
2022/07/02 10:29:17;;;;;;;1.40;1.40;;;36.80;46.50;;;;;;10555892;28;20254;-81
2022/07/02 10:34:33;;;;;;;1.50;1.50;;;34.50;49.90;;;;;;10558179;28;20202;-80
2022/07/02 10:39:39;;;;;;;1.60;1.50;;;32.50;54.60;;;;;;10556748;28;20227;-81
2022/07/02 10:44:45;;;;;;;1.60;1.50;;;30.60;52.00;;;;;;10558018;28;20206;-81
2022/07/02 10:49:58;;;;;;;1.60;1.60;;;29.40;56.40;;;;;;10550263;28;20228;-79
2022/07/02 10:55:00;;;;;;;2.00;1.80;;;28.30;57.30;;;;;;10537810;28;20207;-80
2022/07/02 11:00:09;;;;;;;2.20;2.10;;;27.50;58.10;;;;;;10546145;28;20216;-80
2022/07/02 11:05:12;;;;;;;1.80;1.70;;;26.90;61.80;;;;;;10543800;28;20225;-81
2022/07/02 11:10:15;;;;;;;2.07;1.80;;;26.40;60.70;;;;;;10554371;28;20302;-86
2022/07/02 11:15:19;;;;;;;1.87;1.77;;;25.90;63.30;;;;;;10554044;28;20549;-80
2022/07/02 11:20:26;;;;;;;1.83;1.73;;;25.60;62.10;;;;;;10545503;28;20290;-80
2022/07/02 11:25:29;;;;;;;2.40;1.83;;;25.30;60.00;;;;;;10535878;28;20198;-83
2022/07/02 11:30:34;;;;;;;1.90;1.80;;;25.00;68.80;;;;;;10518877;28;20236;-82
2022/07/02 11:35:36;;;;;;;1.73;1.63;;;24.80;63.80;;;;;;10535454;28;20682;-82
2022/07/02 11:40:39;;;;;;;1.50;1.50;;;24.60;69.20;;;;;;10541326;28;20269;-83
2022/07/02 11:45:44;;;;;;;1.90;1.80;;;24.40;66.00;;;;;;10516814;28;20191;-82
2022/07/02 11:50:55;;;;;;;1.73;1.63;;;24.40;68.60;;;;;;10540377;28;20211;-82
2022/07/02 11:56:06;;;;;;;1.50;1.50;;;24.30;64.40;;;;;;10544568;28;20191;-83
2022/07/02 12:01:26;;;;;;;1.70;1.47;;;24.30;61.50;;;;;;10546223;28;20204;-83
2022/07/02 12:06:31;;;;;;;1.60;1.60;;;24.20;65.90;;;;;;10545278;28;20195;-83
2022/07/02 12:11:35;;;;;;;1.60;1.50;;;24.10;66.10;;;;;;10543681;28;20707;-85
2022/07/02 12:16:40;;;;;;;1.27;1.17;;;24.10;63.10;;;;;;10543415;28;20199;-82
2022/07/02 12:21:43;;;;;;;1.83;1.73;;;24.10;64.10;;;;;;10513660;28;20568;-81
2022/07/02 12:26:46;;;;;;;1.77;1.67;;;24.10;62.80;;;;;;10535500;28;20250;-81
2022/07/02 12:31:52;;;;;;;2.00;1.80;;;24.10;62.30;;;;;;10540167;28;20235;-83
2022/07/02 12:36:56;;;;;;;1.27;1.17;;;24.20;65.50;;;;;;10542502;28;20628;-83
2022/07/02 12:41:59;;;;;;;1.60;1.50;;;24.20;64.20;;;;;;10513478;22;20794;-81
2022/07/02 12:47:02;;;;;;;1.70;1.60;;;24.20;65.80;;;;;;10475494;28;20201;-81
2022/07/02 12:52:06;;;;;;;1.87;1.77;;;24.30;67.50;;;;;;10456883;28;20237;-78
2022/07/02 12:57:19;;;;;;;1.67;1.67;;;24.30;66.10;;;;;;10430368;28;20754;-78
2022/07/02 13:02:28;;;;;;;3.90;1.50;;;24.30;65.70;;;;;;10445024;28;20225;-78
2022/07/02 13:07:30;;;;;;;1.83;1.73;;;24.30;65.80;;;;;;10454684;28;20287;-78
2022/07/02 13:12:32;;;;;;;1.70;1.60;;;24.30;66.80;;;;;;10457133;28;20248;-78
2022/07/02 13:17:35;;;;;;;1.60;1.50;;;24.30;66.60;;;;;;10440246;28;20201;-78
2022/07/02 13:22:38;;;;;;;1.43;1.13;;;24.30;66.40;;;;;;10441786;28;20312;-78
2022/07/02 13:27:41;;;;;;;1.93;1.83;;;24.40;68.50;;;;;;10441391;28;20258;-78
2022/07/02 13:32:46;;;;;;;1.80;1.70;;;24.40;71.30;;;;;;10441892;28;20232;-78
2022/07/02 13:37:48;;;;;;;1.93;1.47;;;24.50;66.70;;;;;;10444442;28;20690;-78
2022/07/02 13:42:50;;;;;;;1.50;1.50;;;24.50;68.40;;;;;;10451456;28;20203;-78
2022/07/02 13:47:53;;;;;;;1.70;1.60;;;24.40;66.90;;;;;;10454415;28;20633;-78
2022/07/02 13:52:56;;;;;;;1.60;1.53;;;24.40;68.30;;;;;;10463343;28;20663;-79
2022/07/02 13:57:58;;;;;;;1.77;1.67;;;24.40;69.00;;;;;;10455968;28;20225;-78
2022/07/02 14:03:01;;;;;;;1.60;1.60;;;24.40;69.40;;;;;;10450012;28;20653;-77
2022/07/02 14:08:03;;;;;;;1.70;1.70;;;24.40;67.20;;;;;;10447879;28;20213;-77
2022/07/02 14:13:06;;;;;;;1.60;1.50;;;24.40;67.00;;;;;;10448409;28;20251;-77
2022/07/02 14:18:09;;;;;;;1.50;1.40;;;24.40;69.00;;;;;;10450284;28;20712;-78
2022/07/02 14:23:12;;;;;;;1.37;1.27;;;24.40;70.30;;;;;;10454593;28;20262;-77
2022/07/02 14:28:15;;;;;;;1.30;1.20;;;24.40;65.80;;;;;;10452637;28;20240;-77
2022/07/02 14:33:19;;;;;;;1.40;1.40;;;24.50;66.10;;;;;;10444749;28;20244;-77
2022/07/02 14:38:21;;;;;;;1.27;1.23;;;24.40;67.00;;;;;;10447383;28;20232;-77
2022/07/02 14:43:23;;;;;;;1.33;1.23;;;24.40;67.30;;;;;;10449770;28;20259;-77
2022/07/02 14:48:27;;;;;;;1.90;1.80;;;24.40;66.80;;;;;;10457653;28;20217;-77
2022/07/02 14:53:29;;;;;;;2.03;1.93;;;24.40;67.20;;;;;;10454147;28;20315;-77
2022/07/02 14:58:31;;;;;;;1.37;1.37;;;24.30;67.70;;;;;;10454535;28;20248;-77
2022/07/02 15:03:35;;;;;;;1.77;1.40;;;24.30;70.10;;;;;;10456064;28;20196;-77
2022/07/02 15:08:37;;;;;;;1.57;1.47;;;24.30;67.90;;;;;;10457433;28;20286;-78
2022/07/02 15:19:00;;;;;;;1.70;1.60;;;24.30;67.40;;;;;;10451116;28;20213;-77
2022/07/02 15:24:09;;;;;;;4.83;1.57;;;24.40;67.80;;;;;;10448039;28;20185;-78
2022/07/02 15:29:12;;;;;;;1.50;1.50;;;24.40;65.80;;;;;;10455936;28;20232;-78
2022/07/02 15:34:15;;;;;;;1.67;1.57;;;24.50;65.00;;;;;;10455470;28;20201;-78
2022/07/02 15:39:18;;;;;;;1.73;1.10;;;24.50;65.10;;;;;;10455621;28;20266;-78
2022/07/02 15:44:28;;;;;;;1.10;1.00;;;24.40;67.40;;;;;;10456189;28;20320;-78
2022/07/02 15:49:33;;;;;;;1.53;1.53;;;24.40;65.50;;;;;;10452455;28;20822;-78
2022/07/02 15:54:40;;;;;;;1.57;1.47;;;24.40;65.90;;;;;;10459296;28;20225;-79
2022/07/02 15:59:44;;;;;;;5.33;1.87;;;24.40;68.80;;;;;;10455944;28;20226;-78
2022/07/02 16:04:51;;;;;;;6.20;1.60;;;24.40;66.50;;;;;;10456217;28;20232;-79
2022/07/02 16:09:54;;;;;;;3.07;1.40;;;24.40;65.50;;;;;;10456171;28;20300;-79
2022/07/02 16:14:57;;;;;;;1.97;1.60;;;24.40;62.30;;;;;;10445553;28;20676;-78
2022/07/02 16:20:01;;;;;;;1.60;1.50;;;24.40;65.50;;;;;;10455218;28;20217;-78
2022/07/02 16:25:04;;;;;;;1.70;1.60;;;24.40;68.00;;;;;;10456851;28;20683;-78
2022/07/02 16:30:08;;;;;;;2.20;2.00;;;24.30;69.20;;;;;;10447329;28;20308;-78
2022/07/02 16:35:15;;;;;;;1.60;1.50;;;24.30;67.80;;;;;;10454347;28;20284;-81
2022/07/02 16:40:22;;;;;;;1.30;1.30;;;24.30;70.30;;;;;;10451899;28;20232;-78
2022/07/02 16:45:25;;;;;;;1.43;1.33;;;24.30;68.40;;;;;;10453021;28;20615;-78
2022/07/02 16:50:32;;;;;;;1.60;1.50;;;24.20;66.10;;;;;;10454428;28;20227;-77
2022/07/02 16:55:35;;;;;;;1.50;1.40;;;24.20;69.80;;;;;;10448387;28;20615;-78
2022/07/02 17:00:37;;;;;;;1.50;1.40;;;24.10;70.60;;;;;;10455847;28;20247;-77
2022/07/02 17:05:41;;;;;;;1.37;1.37;;;24.10;65.90;;;;;;10451472;28;20624;-77
2022/07/02 17:16:03;;;;;;;1.30;1.20;;;24.10;64.60;;;;;;10429639;28;20601;-78
2022/07/02 17:21:07;;;;;;;1.73;1.63;;;24.20;64.40;;;;;;10439809;28;20300;-77
2022/07/02 17:26:09;;;;;;;1.43;1.43;;;24.30;65.40;;;;;;10449353;28;20233;-78
2022/07/02 17:31:11;;;;;;;2.33;2.23;;;24.30;66.50;;;;;;10450769;28;20249;-78
2022/07/02 17:36:14;;;;;;;2.30;2.00;;;24.30;66.80;;;;;;10450350;28;20196;-78
2022/07/02 17:41:17;;;;;;;1.67;1.57;;;24.20;67.80;;;;;;10449806;28;20309;-79
2022/07/02 17:46:19;;;;;;;1.40;1.30;;;24.30;66.60;;;;;;10451909;28;20205;-78
2022/07/02 17:51:23;;;;;;;1.97;1.87;;;24.30;64.80;;;;;;10454512;28;20287;-79
2022/07/02 17:56:25;;;;;;;2.13;2.03;;;24.20;67.60;;;;;;10455881;28;20703;-79
2022/07/02 18:01:27;;;;;;;2.10;2.00;;;24.20;71.20;;;;;;10457675;28;20228;-80
2022/07/02 18:06:31;;;;;;;1.80;1.70;;;24.10;69.60;;;;;;10452986;28;20204;-80
2022/07/02 18:11:34;;;;;;;2.10;2.00;;;24.00;70.60;;;;;;10453560;28;20288;-80
2022/07/02 18:16:36;;;;;;;1.43;1.33;;;24.00;70.80;;;;;;10453524;28;20700;-80
2022/07/02 18:21:39;;;;;;;2.00;1.80;;;23.90;73.60;;;;;;10455130;28;20229;-80
2022/07/02 18:26:41;;;;;;;1.60;1.50;;;23.80;72.20;;;;;;10456371;28;20677;-79
2022/07/02 18:31:43;;;;;;;2.20;2.00;;;23.80;72.70;;;;;;10443335;28;20330;-77
2022/07/02 18:36:47;;;;;;;2.57;2.30;;;23.80;74.00;;;;;;10447401;28;20224;-77
2022/07/02 18:41:49;;;;;;;3.30;3.10;;;23.70;74.60;;;;;;10449158;28;20394;-77
2022/07/02 18:46:51;;;;;;;3.57;3.27;;;23.60;75.80;;;;;;10449464;28;20653;-77
2022/07/02 18:51:54;;;;;;;3.87;3.67;;;23.60;76.30;;;;;;10444653;28;20259;-77
2022/07/02 18:56:57;;;;;;;5.60;5.20;;;23.50;77.10;;;;;;10445956;28;20231;-77
2022/07/02 19:01:59;;;;;;;4.60;4.30;;;23.40;77.60;;;;;;10445792;28;20673;-77
2022/07/02 19:07:03;;;;;;;4.53;4.23;;;23.30;78.20;;;;;;10448842;28;20201;-78
2022/07/02 19:12:06;;;;;;;4.83;4.53;;;23.20;78.70;;;;;;10450838;28;20641;-77
2022/07/02 19:17:08;;;;;;;5.50;4.90;;;23.10;79.50;;;;;;10444523;28;20205;-77
2022/07/02 19:22:11;;;;;;;3.90;3.60;;;22.90;79.30;;;;;;10448785;28;20221;-79
2022/07/02 19:32:36;;;;;;;3.60;3.40;;;22.70;81.40;;;;;;10439789;28;20224;-79
2022/07/02 19:37:39;;;;;;;3.50;3.30;;;22.50;81.90;;;;;;10463605;28;20205;-78
2022/07/02 19:42:42;;;;;;;2.97;2.87;;;22.50;84.30;;;;;;10458115;28;20231;-79
2022/07/02 19:47:44;;;;;;;4.20;3.50;;;22.40;83.50;;;;;;10463060;28;20247;-77
2022/07/02 19:52:47;;;;;;;3.43;3.23;;;22.30;87.10;;;;;;10455610;28;20260;-77
2022/07/02 19:57:49;;;;;;;3.50;3.30;;;22.20;88.00;;;;;;10441632;28;20223;-79
2022/07/02 20:02:51;;;;;;;3.00;2.80;;;22.20;89.90;;;;;;10459970;28;20280;-77
2022/07/02 20:07:55;;;;;;;7.67;3.50;;;22.10;89.20;;;;;;10434992;28;20707;-77
2022/07/02 20:12:58;;;;;;;3.17;3.00;;;22.10;88.40;;;;;;10453172;28;20224;-77
2022/07/02 20:18:00;;;;;;;3.17;2.97;;;22.00;91.30;;;;;;10457271;28;20228;-78
2022/07/02 20:23:04;;;;;;;3.33;3.10;;;22.00;90.50;;;;;;10459774;28;20197;-77
2022/07/02 20:28:06;;;;;;;2.80;2.70;;;21.90;89.00;;;;;;10452280;28;20227;-77
2022/07/02 20:33:08;;;;;;;2.47;2.37;;;21.80;90.60;;;;;;10449836;28;20808;-77
2022/07/02 20:38:12;;;;;;;2.80;2.70;;;21.80;90.60;;;;;;10451355;28;20225;-77
2022/07/02 20:43:15;;;;;;;2.80;2.70;;;21.70;91.50;;;;;;10451547;28;20280;-78
2022/07/02 20:48:17;;;;;;;2.97;2.77;;;21.70;90.50;;;;;;10456480;28;20213;-79
2022/07/02 20:53:20;;;;;;;3.60;3.40;;;21.70;90.90;;;;;;10452996;28;20664;-79
2022/07/02 20:58:23;;;;;;;2.93;2.77;;;21.60;91.60;;;;;;10452952;28;20232;-80
2022/07/02 21:03:25;;;;;;;3.20;3.00;;;21.60;91.10;;;;;;10453239;28;20197;-76
2022/07/02 21:08:28;;;;;;;3.10;2.90;;;21.50;91.20;;;;;;10454367;28;20228;-79
2022/07/02 21:13:31;;;;;;;4.10;3.83;;;21.50;91.10;;;;;;10439769;28;20225;-78
2022/07/02 21:18:33;;;;;;;2.90;2.70;;;21.40;90.50;;;;;;10445184;28;20217;-78
2022/07/02 21:23:36;;;;;;;3.43;3.10;;;21.40;90.10;;;;;;10452254;28;20193;-78
2022/07/02 21:28:38;;;;;;;4.30;3.50;;;21.40;91.00;;;;;;10447613;28;20343;-78
2022/07/02 21:33:41;;;;;;;2.80;2.70;;;21.40;91.60;;;;;;10442877;28;20253;-77
2022/07/02 21:38:44;;;;;;;2.60;2.50;;;21.30;90.90;;;;;;10445499;28;20935;-77
2022/07/02 21:43:46;;;;;;;2.90;2.77;;;21.30;92.20;;;;;;10448892;28;20204;-78
2022/07/02 21:48:48;;;;;;;2.80;2.70;;;21.30;92.50;;;;;;10448569;28;20672;-76
2022/07/02 21:53:52;;;;;;;2.77;2.57;;;21.10;91.60;;;;;;10451806;28;20727;-77
2022/07/02 21:58:54;;;;;;;2.50;2.40;;;21.10;93.40;;;;;;10454280;28;20225;-77
2022/07/02 22:03:56;;;;;;;2.30;2.20;;;21.10;93.20;;;;;;10440170;28;20235;-78
2022/07/02 22:09:00;;;;;;;2.73;2.53;;;21.10;93.60;;;;;;10446406;28;20233;-78
2022/07/02 22:14:02;;;;;;;2.60;2.50;;;21.00;91.80;;;;;;10453416;28;20249;-78
2022/07/02 22:19:04;;;;;;;2.83;2.50;;;21.00;92.80;;;;;;10452852;28;20229;-78
2022/07/02 22:24:08;;;;;;;2.63;2.53;;;21.00;91.90;;;;;;10449803;28;20201;-79
2022/07/02 22:29:10;;;;;;;2.40;2.20;;;21.00;91.40;;;;;;10444870;28;20225;-78
2022/07/02 22:34:12;;;;;;;2.20;2.10;;;21.00;92.20;;;;;;10447190;28;20216;-78
2022/07/02 22:39:16;;;;;;;3.70;2.80;;;20.90;91.40;;;;;;10452413;28;20233;-77
2022/07/02 22:44:18;;;;;;;3.63;2.67;;;20.90;92.30;;;;;;10454151;28;20572;-78
2022/07/02 22:49:21;;;;;;;2.83;2.60;;;20.90;92.90;;;;;;10446049;28;20662;-78
2022/07/02 22:54:24;;;;;;;2.50;2.40;;;20.80;92.20;;;;;;10454403;28;20221;-78
2022/07/02 22:59:26;;;;;;;2.40;2.20;;;20.70;93.60;;;;;;10450118;28;20221;-77
2022/07/02 23:04:28;;;;;;;2.60;2.40;;;20.70;93.60;;;;;;10447748;28;20225;-78
2022/07/02 23:09:32;;;;;;;2.70;2.50;;;20.60;93.60;;;;;;10450548;28;20326;-78
2022/07/02 23:14:34;;;;;;;2.30;2.20;;;20.50;94.20;;;;;;10451821;28;20565;-78
2022/07/02 23:19:36;;;;;;;2.67;2.47;;;20.50;94.40;;;;;;10443939;28;20274;-77
2022/07/02 23:24:40;;;;;;;3.40;3.20;;;20.40;95.00;;;;;;10447835;28;20208;-78
2022/07/02 23:29:42;;;;;;;3.20;2.90;;;20.40;94.40;;;;;;10445598;28;20732;-79
2022/07/02 23:34:45;;;;;;;3.20;3.00;;;20.40;95.20;;;;;;10448502;28;20225;-78
2022/07/02 23:39:49;;;;;;;2.70;2.60;;;20.40;95.90;;;;;;10446980;28;20625;-77
2022/07/02 23:44:51;;;;;;;2.57;2.47;;;20.30;95.60;;;;;;10445224;28;20233;-78
2022/07/02 23:49:53;;;;;;;3.00;2.90;;;20.30;95.50;;;;;;10449299;28;20521;-77
2022/07/02 23:54:56;;;;;;;3.47;3.27;;;20.30;96.20;;;;;;10453399;28;20755;-78
2022/07/02 23:59:59;;;;;;;3.20;2.97;;;20.30;96.40;;;;;;10450214;28;20221;-77
